createdAt,value
2024-02-21T00:00:18.443Z,63.10
2024-02-21T00:02:45.113Z,63.44
2024-02-21T00:05:12.427Z,63.22
2024-02-21T00:07:39.148Z,63.11
2024-02-21T00:10:06.450Z,62.92
2024-02-21T00:12:33.129Z,63.15
2024-02-21T00:14:59.806Z,63.02
2024-02-21T00:17:27.459Z,63.16
2024-02-21T00:19:54.311Z,62.75
2024-02-21T00:22:21.066Z,63.27
2024-02-21T00:24:47.765Z,63.22
2024-02-21T00:27:14.424Z,63.33
2024-02-21T00:29:41.104Z,63.29
2024-02-21T00:32:07.700Z,63.61
2024-02-21T00:34:34.845Z,63.64
2024-02-21T00:37:01.558Z,63.84
2024-02-21T00:39:28.205Z,63.75
2024-02-21T00:41:54.827Z,62.96
2024-02-21T00:44:21.579Z,63.31
2024-02-21T00:46:48.482Z,63.27
2024-02-21T00:49:15.296Z,63.44
2024-02-21T00:51:42.043Z,63.86
2024-02-21T00:54:08.745Z,63.73
2024-02-21T00:56:35.467Z,63.59
2024-02-21T00:59:02.151Z,63.31
2024-02-21T01:01:28.972Z,63.46
2024-02-21T01:03:55.826Z,63.60
2024-02-21T01:06:22.922Z,63.97
2024-02-21T01:08:49.655Z,63.61
2024-02-21T01:11:17.209Z,63.89
2024-02-21T01:13:44.005Z,64.33
2024-02-21T01:16:10.860Z,63.97
2024-02-21T01:18:41.012Z,63.70
2024-02-21T01:21:09.251Z,63.79
2024-02-21T01:23:36.449Z,64.02
2024-02-21T01:26:04.183Z,63.73
2024-02-21T01:28:31.840Z,63.72
2024-02-21T01:30:58.808Z,64.10
2024-02-21T01:33:25.536Z,64.44
2024-02-21T01:35:52.470Z,64.75
2024-02-21T01:38:19.330Z,65.36
2024-02-21T01:40:46.180Z,65.15
2024-02-21T01:43:21.213Z,64.48
2024-02-21T01:45:51.072Z,65.23
2024-02-21T01:48:19.417Z,65.09
2024-02-21T01:50:47.914Z,64.80
2024-02-21T01:53:19.958Z,65.23
2024-02-21T01:55:50.157Z,65.16
2024-02-21T01:58:18.357Z,64.71
2024-02-21T02:00:46.672Z,64.51
2024-02-21T02:03:20.444Z,64.55
2024-02-21T02:05:48.438Z,64.66
2024-02-21T02:08:19.662Z,64.57
2024-02-21T02:10:47.293Z,64.54
2024-02-21T02:13:14.304Z,64.53
2024-02-21T02:15:45.938Z,64.49
2024-02-21T02:18:13.830Z,64.75
2024-02-21T02:20:41.212Z,64.39
2024-02-21T02:23:27.275Z,64.23
2024-02-21T02:25:54.180Z,63.64
2024-02-21T02:28:22.288Z,63.44
2024-02-21T02:30:49.613Z,63.53
2024-02-21T02:33:19.067Z,64.08
2024-02-21T02:35:46.619Z,63.73
2024-02-21T02:38:14.710Z,63.71
2024-02-21T02:40:42.808Z,63.28
2024-02-21T02:43:09.953Z,63.60
2024-02-21T02:45:36.989Z,63.55
2024-02-21T02:48:04.182Z,63.06
2024-02-21T02:50:31.068Z,63.38
2024-02-21T02:52:57.902Z,62.96
2024-02-21T02:55:25.063Z,63.59
2024-02-21T02:57:51.912Z,63.16
2024-02-21T03:00:18.759Z,62.72
2024-02-21T03:02:47.503Z,62.88
2024-02-21T03:05:19.394Z,63.11
2024-02-21T03:07:47.516Z,63.06
2024-02-21T03:10:14.882Z,62.84
2024-02-21T03:12:41.730Z,62.54
2024-02-21T03:15:08.728Z,62.99
2024-02-21T03:17:35.804Z,62.54
2024-02-21T03:20:06.452Z,62.70
2024-02-21T03:22:36.450Z,62.52
2024-02-21T03:25:03.326Z,62.76
2024-02-21T03:27:30.029Z,62.88
2024-02-21T03:29:56.773Z,63.28
2024-02-21T03:32:23.507Z,63.65
2024-02-21T03:34:50.195Z,64.37
2024-02-21T03:37:16.947Z,64.98
2024-02-21T03:39:43.563Z,64.99
2024-02-21T03:42:10.203Z,64.93
2024-02-21T03:44:37.833Z,65.20
2024-02-21T03:47:04.620Z,65.05
2024-02-21T03:49:31.413Z,65.52
2024-02-21T03:51:58.078Z,65.19
2024-02-21T03:54:24.827Z,65.13
2024-02-21T03:56:51.569Z,64.93
2024-02-21T03:59:18.244Z,65.38
2024-02-21T04:01:44.972Z,64.82
2024-02-21T04:04:12.236Z,65.49
2024-02-21T04:06:47.575Z,65.89
2024-02-21T04:09:14.246Z,65.35
2024-02-21T04:11:40.900Z,65.96
2024-02-21T04:14:08.290Z,65.69
2024-02-21T04:16:35.839Z,65.35
2024-02-21T04:19:03.359Z,65.60
2024-02-21T04:21:30.366Z,65.63
2024-02-21T04:23:57.066Z,65.66
2024-02-21T04:26:23.723Z,65.39
2024-02-21T04:28:50.447Z,65.37
2024-02-21T04:31:17.233Z,65.22
2024-02-21T04:33:44.109Z,65.50
2024-02-21T04:36:10.857Z,66.03
2024-02-21T04:38:37.522Z,65.89
2024-02-21T04:41:04.280Z,66.50
2024-02-21T04:43:30.934Z,66.54
2024-02-21T04:45:57.693Z,66.63
2024-02-21T04:48:24.318Z,67.12
2024-02-21T04:50:50.977Z,67.26
2024-02-21T04:53:17.711Z,67.17
2024-02-21T04:55:44.487Z,67.36
2024-02-21T04:58:11.270Z,67.25
2024-02-21T05:00:38.016Z,67.60
2024-02-21T05:03:05.133Z,67.99
2024-02-21T05:05:32.011Z,67.77
2024-02-21T05:07:58.885Z,68.50
2024-02-21T05:10:25.628Z,68.76
2024-02-21T05:12:52.295Z,68.96
2024-02-21T05:15:18.967Z,69.44
2024-02-21T05:17:45.700Z,69.67
2024-02-21T05:20:12.800Z,69.62
2024-02-21T05:22:39.600Z,69.87
2024-02-21T05:25:07.181Z,70.53
2024-02-21T05:27:33.942Z,71.43
2024-02-21T05:30:00.609Z,71.21
2024-02-21T05:32:27.804Z,71.55
2024-02-21T05:34:54.664Z,71.87
2024-02-21T05:37:21.436Z,72.19
2024-02-21T05:39:48.211Z,72.44
2024-02-21T05:42:14.927Z,72.73
2024-02-21T05:44:41.599Z,72.69
2024-02-21T05:47:11.316Z,73.28
2024-02-21T05:49:38.489Z,73.25
2024-02-21T05:52:07.164Z,73.09
2024-02-21T05:54:34.048Z,73.39
2024-02-21T05:57:00.805Z,73.49
2024-02-21T05:59:27.448Z,73.07
2024-02-21T06:01:59.158Z,72.62
2024-02-21T06:04:26.220Z,72.88
2024-02-21T06:06:53.080Z,72.80
2024-02-21T06:09:19.751Z,72.54
2024-02-21T06:11:47.731Z,72.09
2024-02-21T06:14:14.562Z,71.75
2024-02-21T06:16:41.365Z,71.96
2024-02-21T06:19:10.346Z,71.84
2024-02-21T06:21:38.092Z,71.71
2024-02-21T06:24:05.213Z,71.85
2024-02-21T06:26:31.838Z,71.59
2024-02-21T06:29:00.944Z,71.98
2024-02-21T06:31:28.582Z,72.05
2024-02-21T06:33:55.392Z,71.84
2024-02-21T06:36:22.059Z,71.55
2024-02-21T06:38:48.861Z,71.94
2024-02-21T06:41:20.259Z,71.39
2024-02-21T06:43:47.825Z,71.52
2024-02-21T06:46:28.117Z,72.18
2024-02-21T06:48:55.039Z,71.66
2024-02-21T06:51:21.880Z,71.36
2024-02-21T06:53:48.598Z,71.12
2024-02-21T06:56:15.407Z,71.26
2024-02-21T06:58:42.425Z,71.62
2024-02-21T07:01:09.854Z,71.45
2024-02-21T07:03:36.580Z,71.11
2024-02-21T07:06:03.798Z,71.24
2024-02-21T07:08:30.934Z,70.95
2024-02-21T07:10:57.719Z,71.09
2024-02-21T07:13:24.558Z,71.02
2024-02-21T07:15:51.309Z,70.60
2024-02-21T07:18:18.275Z,70.94
2024-02-21T07:20:46.200Z,70.99
2024-02-21T07:23:12.867Z,70.49
2024-02-21T07:25:40.789Z,70.24
2024-02-21T07:28:07.962Z,70.38
2024-02-21T07:30:34.749Z,70.73
2024-02-21T07:33:01.642Z,70.66
2024-02-21T07:35:28.395Z,70.33
2024-02-21T07:37:55.086Z,71.08
2024-02-21T07:40:21.898Z,70.63
2024-02-21T07:42:51.668Z,70.78
2024-02-21T07:45:20.059Z,70.82
2024-02-21T07:47:47.010Z,70.74
2024-02-21T07:50:13.853Z,71.71
2024-02-21T07:52:40.710Z,70.84
2024-02-21T07:55:07.711Z,71.20
2024-02-21T07:57:34.433Z,71.87
2024-02-21T08:00:01.181Z,71.89
2024-02-21T08:02:27.892Z,72.62
2024-02-21T08:04:54.703Z,72.64
2024-02-21T08:07:21.385Z,72.39
2024-02-21T08:09:48.065Z,72.78
2024-02-21T08:12:14.711Z,73.29
2024-02-21T08:14:41.367Z,73.68
2024-02-21T08:17:08.070Z,73.44
2024-02-21T08:19:34.913Z,73.99
2024-02-21T08:22:01.746Z,73.85
2024-02-21T08:24:28.429Z,74.09
2024-02-21T08:26:55.099Z,73.34
2024-02-21T08:29:21.852Z,72.80
2024-02-21T08:31:48.558Z,72.41
2024-02-21T08:34:15.349Z,71.92
2024-02-21T08:36:42.148Z,71.79
2024-02-21T08:39:10.858Z,71.88
2024-02-21T08:41:50.861Z,71.46
2024-02-21T08:44:29.571Z,72.33
2024-02-21T08:46:57.214Z,71.97
2024-02-21T08:49:25.105Z,72.29
2024-02-21T08:51:52.649Z,72.02
2024-02-21T08:54:19.336Z,71.73
2024-02-21T08:56:46.010Z,71.73
2024-02-21T08:59:12.932Z,71.87
2024-02-21T09:01:39.867Z,72.28
2024-02-21T09:04:06.753Z,71.99
2024-02-21T09:06:34.936Z,71.68
2024-02-21T09:09:02.144Z,71.93
2024-02-21T09:11:29.369Z,71.88
2024-02-21T09:13:56.504Z,71.91
2024-02-21T09:16:24.519Z,72.09
2024-02-21T09:18:51.926Z,72.61
2024-02-21T09:21:18.698Z,72.26
2024-02-21T09:23:46.654Z,72.72
2024-02-21T09:26:17.293Z,71.93
2024-02-21T09:28:45.528Z,72.46
2024-02-21T09:31:12.263Z,72.58
2024-02-21T09:33:39.026Z,71.97
2024-02-21T09:36:09.429Z,71.91
2024-02-21T09:38:36.039Z,72.15
2024-02-21T09:41:30.877Z,71.85
2024-02-21T09:43:58.210Z,71.77
2024-02-21T09:47:18.658Z,71.91
2024-02-21T09:49:46.908Z,71.37
2024-02-21T09:52:15.408Z,71.48
2024-02-21T09:54:46.447Z,71.33
2024-02-21T09:57:14.418Z,70.94
2024-02-21T09:59:43.086Z,70.54
2024-02-21T10:02:10.385Z,69.80
2024-02-21T10:04:37.384Z,69.50
2024-02-21T10:07:05.456Z,69.11
2024-02-21T10:09:32.312Z,68.24
2024-02-21T10:12:20.305Z,66.95
2024-02-21T10:14:47.058Z,66.50
2024-02-21T10:17:19.903Z,65.71
2024-02-21T10:19:48.615Z,65.52
2024-02-21T10:22:16.814Z,65.26
2024-02-21T10:24:43.780Z,65.17
2024-02-21T10:27:14.163Z,64.82
2024-02-21T10:29:42.401Z,64.61
2024-02-21T10:32:14.316Z,65.10
2024-02-21T10:34:42.900Z,65.08
2024-02-21T10:37:10.899Z,65.17
2024-02-21T10:39:40.027Z,65.28
2024-02-21T10:42:06.979Z,63.92
2024-02-21T10:44:37.657Z,63.31
2024-02-21T10:47:10.559Z,62.99
2024-02-21T10:49:48.665Z,63.27
2024-02-21T10:52:28.039Z,63.43
2024-02-21T10:54:59.400Z,63.62
2024-02-21T10:57:28.652Z,63.35
2024-02-21T10:59:59.606Z,63.47
2024-02-21T11:02:29.943Z,62.87
2024-02-21T11:04:57.754Z,62.58
2024-02-21T11:07:25.054Z,62.87
2024-02-21T11:09:56.430Z,62.39
2024-02-21T11:12:27.228Z,62.57
2024-02-21T11:14:54.189Z,62.50
2024-02-21T11:17:27.801Z,62.35
2024-02-21T11:19:54.772Z,61.82
2024-02-21T11:22:23.989Z,62.43
2024-02-21T11:24:51.336Z,61.33
2024-02-21T11:27:27.434Z,60.74
2024-02-21T11:29:58.184Z,60.90
2024-02-21T11:32:26.796Z,60.59
2024-02-21T11:35:03.507Z,59.81
2024-02-21T11:37:35.208Z,59.53
2024-02-21T11:40:02.373Z,58.91
2024-02-21T11:42:30.199Z,58.75
2024-02-21T11:45:01.747Z,59.45
2024-02-21T11:47:30.316Z,59.11
2024-02-21T11:49:57.422Z,59.87
2024-02-21T11:52:26.938Z,59.84
2024-02-21T11:54:55.934Z,60.07
2024-02-21T11:57:22.863Z,60.36
2024-02-21T11:59:52.719Z,60.74
2024-02-21T12:02:20.890Z,60.93
2024-02-21T12:04:48.553Z,61.02
2024-02-21T12:07:15.717Z,60.46
2024-02-21T12:09:43.352Z,60.86
2024-02-21T12:12:10.106Z,60.72
2024-02-21T12:14:37.152Z,61.33
2024-02-21T12:17:07.947Z,61.23
2024-02-21T12:19:35.496Z,61.06
2024-02-21T12:22:03.071Z,61.02
2024-02-21T12:24:30.506Z,61.27
2024-02-21T12:26:58.114Z,61.52
2024-02-21T12:29:29.941Z,61.56
2024-02-21T12:31:57.003Z,61.59
2024-02-21T12:34:34.731Z,61.95
2024-02-21T12:37:14.247Z,62.31
2024-02-21T12:39:41.090Z,62.27
2024-02-21T12:42:07.865Z,61.50
2024-02-21T12:44:35.291Z,60.87
2024-02-21T12:47:02.115Z,61.43
2024-02-21T12:49:31.012Z,61.28
2024-02-21T12:51:57.894Z,61.69
2024-02-21T12:54:24.849Z,61.43
2024-02-21T12:56:51.578Z,61.85
2024-02-21T12:59:18.277Z,61.73
2024-02-21T13:01:45.098Z,61.67
2024-02-21T13:04:13.046Z,61.66
2024-02-21T13:06:40.031Z,61.64
2024-02-21T13:09:09.345Z,61.57
2024-02-21T13:11:36.142Z,61.58
2024-02-21T13:14:03.336Z,62.06
2024-02-21T13:16:30.291Z,62.23
2024-02-21T13:18:57.081Z,62.47
2024-02-21T13:21:23.972Z,62.51
2024-02-21T13:23:50.798Z,62.85
2024-02-21T13:26:17.668Z,62.67
2024-02-21T13:28:46.411Z,62.69
2024-02-21T13:31:13.364Z,62.79
2024-02-21T13:33:40.112Z,62.74
2024-02-21T13:36:07.239Z,63.02
2024-02-21T13:38:33.864Z,63.17
2024-02-21T13:41:01.856Z,62.61
2024-02-21T13:43:29.533Z,62.35
2024-02-21T13:46:01.166Z,62.27
2024-02-21T13:48:31.427Z,62.34
2024-02-21T13:50:58.564Z,62.04
2024-02-21T13:53:25.312Z,61.54
2024-02-21T13:55:52.201Z,61.73
2024-02-21T13:58:19.075Z,62.12
2024-02-21T14:00:46.149Z,61.26
2024-02-21T14:03:12.969Z,60.99
2024-02-21T14:05:43.405Z,61.10
2024-02-21T14:08:10.594Z,61.36
2024-02-21T14:10:38.478Z,61.43
2024-02-21T14:13:05.371Z,61.39
2024-02-21T14:15:31.997Z,60.97
2024-02-21T14:17:58.735Z,60.34
2024-02-21T14:20:25.602Z,60.03
2024-02-21T14:22:52.434Z,59.35
2024-02-21T14:25:19.212Z,59.28
2024-02-21T14:27:45.880Z,59.46
2024-02-21T14:30:12.777Z,59.33
2024-02-21T14:32:44.445Z,58.38
2024-02-21T14:35:11.203Z,58.63
2024-02-21T14:37:38.386Z,58.61
2024-02-21T14:40:05.774Z,59.48
2024-02-21T14:42:32.397Z,59.70
2024-02-21T14:45:05.075Z,59.59
2024-02-21T14:47:32.804Z,59.80
2024-02-21T14:49:59.718Z,60.26
2024-02-21T14:52:28.599Z,60.29
2024-02-21T14:54:55.418Z,60.03
2024-02-21T14:57:22.590Z,60.57
2024-02-21T14:59:54.062Z,61.05
2024-02-21T15:02:20.955Z,60.81
2024-02-21T15:04:48.632Z,61.25
2024-02-21T15:07:15.344Z,61.08
2024-02-21T15:09:42.138Z,61.41
2024-02-21T15:12:08.990Z,61.58
2024-02-21T15:14:35.654Z,61.32
2024-02-21T15:17:02.376Z,60.90
2024-02-21T15:19:29.335Z,61.64
2024-02-21T15:21:56.249Z,61.43
2024-02-21T15:24:22.904Z,61.90
2024-02-21T15:26:49.493Z,62.11
2024-02-21T15:29:16.241Z,61.95
2024-02-21T15:31:47.890Z,61.69
2024-02-21T15:34:16.777Z,61.68
2024-02-21T15:36:43.902Z,61.61
2024-02-21T15:39:11.896Z,61.19
2024-02-21T15:41:38.582Z,60.42
2024-02-21T15:44:05.743Z,59.83
2024-02-21T15:46:35.155Z,59.93
2024-02-21T15:49:02.087Z,59.25
2024-02-21T15:51:28.926Z,59.37
2024-02-21T15:53:55.629Z,58.84
2024-02-21T15:56:22.449Z,59.16
2024-02-21T15:58:49.612Z,58.91
2024-02-21T16:01:16.443Z,58.63
2024-02-21T16:03:43.122Z,58.91
2024-02-21T16:06:10.407Z,58.66
2024-02-21T16:08:42.042Z,59.06
2024-02-21T16:11:18.749Z,59.00
2024-02-21T16:13:47.694Z,59.02
2024-02-21T16:16:14.603Z,58.75
2024-02-21T16:18:41.253Z,59.38
2024-02-21T16:21:08.549Z,59.06
2024-02-21T16:23:36.118Z,59.09
2024-02-21T16:26:02.930Z,58.97
2024-02-21T16:28:29.701Z,58.43
2024-02-21T16:30:57.877Z,58.09
2024-02-21T16:33:26.057Z,58.69
2024-02-21T16:35:53.085Z,58.13
2024-02-21T16:38:19.820Z,58.11
2024-02-21T16:40:46.603Z,57.55
2024-02-21T16:43:13.298Z,57.41
2024-02-21T16:45:39.997Z,57.82
2024-02-21T16:48:07.032Z,57.34
2024-02-21T16:50:41.602Z,57.86
2024-02-21T16:53:12.608Z,57.80
2024-02-21T16:55:39.391Z,58.07
2024-02-21T16:58:06.105Z,57.38
2024-02-21T17:00:33.131Z,58.52
2024-02-21T17:03:00.456Z,58.53
2024-02-21T17:05:27.624Z,57.66
2024-02-21T17:07:54.825Z,57.56
2024-02-21T17:10:21.720Z,58.01
2024-02-21T17:12:48.376Z,57.42
2024-02-21T17:15:16.860Z,57.32
2024-02-21T17:17:43.954Z,57.92
2024-02-21T17:20:11.140Z,57.71
2024-02-21T17:22:38.149Z,58.10
2024-02-21T17:25:10.989Z,58.37
2024-02-21T17:27:38.566Z,58.03
2024-02-21T17:30:07.075Z,57.50
2024-02-21T17:32:35.670Z,57.79
2024-02-21T17:35:06.169Z,57.91
2024-02-21T17:37:36.159Z,57.73
2024-02-21T17:40:08.337Z,57.59
2024-02-21T17:42:35.907Z,57.59
2024-02-21T17:45:04.085Z,57.89
2024-02-21T17:47:31.809Z,58.16
2024-02-21T17:49:58.832Z,57.90
2024-02-21T17:52:27.859Z,58.17
2024-02-21T17:54:54.572Z,58.21
2024-02-21T17:57:21.273Z,58.01
2024-02-21T17:59:47.963Z,58.55
2024-02-21T18:02:20.796Z,58.41
2024-02-21T18:04:49.139Z,58.21
2024-02-21T18:07:15.922Z,57.85
2024-02-21T18:09:42.738Z,58.30
2024-02-21T18:12:09.716Z,57.92
2024-02-21T18:14:37.009Z,57.93
2024-02-21T18:17:03.791Z,58.10
2024-02-21T18:19:35.544Z,58.10
2024-02-21T18:22:03.337Z,57.98
2024-02-21T18:24:31.483Z,57.59
2024-02-21T18:26:58.324Z,58.27
2024-02-21T18:29:37.714Z,58.35
2024-02-21T18:32:09.589Z,57.95
2024-02-21T18:34:37.589Z,58.04
2024-02-21T18:37:04.672Z,57.98
2024-02-21T18:39:32.356Z,57.86
2024-02-21T18:41:59.358Z,57.84
2024-02-21T18:44:26.060Z,57.65
2024-02-21T18:46:52.873Z,58.20
2024-02-21T18:49:19.933Z,57.69
2024-02-21T18:51:47.535Z,57.60
2024-02-21T18:54:14.256Z,58.17
2024-02-21T18:56:45.120Z,57.40
2024-02-21T18:59:12.561Z,57.87
2024-02-21T19:01:39.474Z,57.58
2024-02-21T19:04:06.404Z,57.58
2024-02-21T19:06:33.245Z,58.00
2024-02-21T19:08:59.901Z,58.42
2024-02-21T19:11:26.906Z,58.36
2024-02-21T19:13:54.202Z,57.98
2024-02-21T19:16:20.867Z,58.07
2024-02-21T19:18:48.757Z,57.75
2024-02-21T19:21:15.708Z,57.74
2024-02-21T19:23:42.630Z,58.33
2024-02-21T19:26:10.300Z,58.05
2024-02-21T19:28:37.171Z,58.45
2024-02-21T19:31:06.838Z,58.06
2024-02-21T19:33:34.001Z,57.60
2024-02-21T19:36:03.690Z,57.67
2024-02-21T19:38:30.375Z,57.57
2024-02-21T19:40:57.012Z,57.66
2024-02-21T19:43:24.213Z,58.31
2024-02-21T19:45:51.137Z,58.03
2024-02-21T19:48:20.279Z,58.23
2024-02-21T19:50:47.195Z,57.81
2024-02-21T19:53:14.129Z,57.54
2024-02-21T19:55:41.261Z,58.45
2024-02-21T19:58:07.980Z,57.96
2024-02-21T20:00:34.949Z,57.71
2024-02-21T20:03:01.761Z,58.20
2024-02-21T20:05:28.561Z,57.73
2024-02-21T20:07:55.513Z,58.99
2024-02-21T20:10:22.820Z,58.17
2024-02-21T20:12:50.015Z,58.37
2024-02-21T20:15:16.942Z,57.98
2024-02-21T20:17:47.417Z,58.53
2024-02-21T20:20:14.994Z,58.87
2024-02-21T20:22:45.107Z,57.93
2024-02-21T20:25:12.041Z,58.48
2024-02-21T20:27:39.238Z,58.12
2024-02-21T20:30:06.803Z,58.71
2024-02-21T20:32:33.871Z,58.16
2024-02-21T20:35:00.884Z,58.83
2024-02-21T20:37:27.867Z,58.86
2024-02-21T20:39:54.783Z,58.77
2024-02-21T20:42:23.325Z,59.00
2024-02-21T20:44:50.132Z,59.12
2024-02-21T20:47:16.955Z,58.43
2024-02-21T20:49:44.084Z,58.36
2024-02-21T20:52:10.916Z,58.66
2024-02-21T20:54:37.582Z,58.56
2024-02-21T20:57:04.505Z,59.22
2024-02-21T20:59:31.340Z,58.44
2024-02-21T21:02:02.989Z,59.30
2024-02-21T21:04:31.532Z,59.03
2024-02-21T21:06:58.653Z,58.53
2024-02-21T21:09:27.139Z,59.69
2024-02-21T21:11:54.090Z,58.74
2024-02-21T21:14:21.054Z,59.67
2024-02-21T21:16:47.961Z,59.46
2024-02-21T21:19:14.851Z,58.65
2024-02-21T21:21:44.403Z,58.74
2024-02-21T21:24:13.057Z,58.73
2024-02-21T21:26:39.750Z,59.42
2024-02-21T21:29:06.652Z,58.77
2024-02-21T21:31:33.505Z,58.94
2024-02-21T21:34:00.346Z,59.49
2024-02-21T21:36:27.104Z,58.98
2024-02-21T21:38:54.730Z,58.86
2024-02-21T21:41:22.100Z,59.14
2024-02-21T21:43:48.945Z,58.91
2024-02-21T21:46:16.490Z,59.18
2024-02-21T21:48:43.823Z,58.88
2024-02-21T21:51:11.132Z,59.27
2024-02-21T21:53:37.797Z,59.02
2024-02-21T21:56:05.607Z,59.58
2024-02-21T21:58:36.215Z,59.50
2024-02-21T22:01:03.450Z,59.33
2024-02-21T22:03:30.183Z,59.40
2024-02-21T22:05:56.932Z,59.26
2024-02-21T22:08:23.573Z,59.71
2024-02-21T22:10:52.074Z,59.88
2024-02-21T22:13:19.717Z,59.01
2024-02-21T22:15:47.754Z,59.53
2024-02-21T22:18:14.872Z,59.10
2024-02-21T22:20:41.960Z,59.36
2024-02-21T22:23:10.781Z,59.18
2024-02-21T22:25:41.464Z,59.35
2024-02-21T22:28:08.960Z,58.81
2024-02-21T22:30:36.203Z,59.34
2024-02-21T22:33:03.130Z,59.79
2024-02-21T22:35:29.968Z,59.44
2024-02-21T22:37:56.745Z,59.75
2024-02-21T22:40:23.384Z,59.11
2024-02-21T22:42:50.005Z,59.47
2024-02-21T22:45:17.960Z,60.55
2024-02-21T22:47:44.722Z,60.46
2024-02-21T22:50:11.770Z,60.30
2024-02-21T22:52:38.493Z,60.75
2024-02-21T22:55:05.726Z,61.04
2024-02-21T22:57:32.737Z,61.24
2024-02-21T22:59:59.452Z,60.74
2024-02-21T23:02:26.160Z,60.95
2024-02-21T23:04:53.952Z,61.51
2024-02-21T23:07:20.868Z,61.40
2024-02-21T23:09:47.607Z,61.32
2024-02-21T23:12:18.178Z,61.57
2024-02-21T23:14:45.215Z,61.11
2024-02-21T23:17:11.968Z,61.41
2024-02-21T23:19:38.816Z,61.62
2024-02-21T23:22:05.585Z,61.38
2024-02-21T23:24:35.228Z,61.45
2024-02-21T23:27:02.669Z,61.83
2024-02-21T23:29:29.387Z,61.39
2024-02-21T23:31:56.135Z,61.34
2024-02-21T23:34:22.876Z,61.60
2024-02-21T23:36:49.672Z,61.37
2024-02-21T23:39:16.461Z,61.31
2024-02-21T23:41:43.106Z,61.32
2024-02-21T23:44:09.761Z,61.30
2024-02-21T23:46:36.853Z,61.86
2024-02-21T23:49:03.665Z,61.94
2024-02-21T23:51:31.224Z,61.20
2024-02-21T23:53:57.836Z,61.93
2024-02-21T23:56:24.538Z,61.15
2024-02-21T23:58:51.269Z,61.89
